createdAt,value
2019-05-11T00:00:21.488Z,56.75
2019-05-11T00:02:51.526Z,56.19
2019-05-11T00:05:21.579Z,56.02
2019-05-11T00:07:51.599Z,55.84
2019-05-11T00:10:23.608Z,55.81
2019-05-11T00:12:53.482Z,55.79
2019-05-11T00:15:23.536Z,55.75
2019-05-11T00:17:53.558Z,55.77
2019-05-11T00:20:23.611Z,55.79
2019-05-11T00:22:53.677Z,55.94
2019-05-11T00:25:23.680Z,56.13
2019-05-11T00:27:53.754Z,56.47
2019-05-11T00:30:24.788Z,56.62
2019-05-11T00:32:54.814Z,56.64
2019-05-11T00:35:24.927Z,56.81
2019-05-11T00:37:54.960Z,56.93
2019-05-11T00:40:25.984Z,56.95
2019-05-11T00:42:56.013Z,57.18
2019-05-11T00:45:26.057Z,57.75
2019-05-11T00:47:56.089Z,58.78
2019-05-11T00:50:38.683Z,59.29
2019-05-11T00:52:57.840Z,59.74
2019-05-11T00:55:27.898Z,60.10
2019-05-11T00:57:57.950Z,60.37
2019-05-11T01:00:28.006Z,60.78
2019-05-11T01:02:58.029Z,60.99
2019-05-11T01:05:28.142Z,61.17
2019-05-11T01:07:58.153Z,61.31
2019-05-11T01:10:41.022Z,61.37
2019-05-11T01:13:00.051Z,61.39
2019-05-11T01:15:30.173Z,61.40
2019-05-11T01:18:00.218Z,61.37
2019-05-11T01:20:30.240Z,61.23
2019-05-11T01:23:00.305Z,61.11
2019-05-11T01:25:30.320Z,61.12
2019-05-11T01:28:00.502Z,60.97
2019-05-11T01:30:30.547Z,60.78
2019-05-11T01:33:00.569Z,60.52
2019-05-11T01:35:30.615Z,60.30
2019-05-11T01:38:00.637Z,60.13
2019-05-11T01:40:31.649Z,59.98
2019-05-11T01:43:01.698Z,59.92
2019-05-11T01:45:31.730Z,59.90
2019-05-11T01:48:01.739Z,59.87
2019-05-11T01:50:32.864Z,59.78
2019-05-11T01:53:02.903Z,59.78
2019-05-11T01:55:32.945Z,59.74
2019-05-11T01:58:02.976Z,59.63
2019-05-11T02:00:33.001Z,59.65
2019-05-11T02:03:03.040Z,59.69
2019-05-11T02:05:33.057Z,59.66
2019-05-11T02:08:03.201Z,59.68
2019-05-11T02:10:33.225Z,59.77
2019-05-11T02:13:03.284Z,59.79
2019-05-11T02:15:33.298Z,59.83
2019-05-11T02:18:03.335Z,59.87
2019-05-11T02:20:33.380Z,59.95
2019-05-11T02:23:03.414Z,60.00
2019-05-11T02:25:33.435Z,59.87
2019-05-11T02:28:03.538Z,59.71
2019-05-11T02:30:33.610Z,59.66
2019-05-11T02:33:03.634Z,59.83
2019-05-11T02:35:33.664Z,59.92
2019-05-11T02:38:03.682Z,59.91
2019-05-11T02:40:33.713Z,59.91
2019-05-11T02:43:03.757Z,59.82
2019-05-11T02:45:41.300Z,59.77
2019-05-11T02:48:11.660Z,59.78
2019-05-11T02:50:41.687Z,59.91
2019-05-11T02:53:11.731Z,60.03
2019-05-11T02:55:41.776Z,60.27
2019-05-11T02:58:11.792Z,60.45
2019-05-11T03:00:42.810Z,60.63
2019-05-11T03:03:12.890Z,60.67
2019-05-11T03:05:42.907Z,60.73
2019-05-11T03:08:12.917Z,60.85
2019-05-11T03:10:42.972Z,60.88
2019-05-11T03:13:13.002Z,60.91
2019-05-11T03:15:43.057Z,60.95
2019-05-11T03:18:13.089Z,60.91
2019-05-11T03:20:43.141Z,60.89
2019-05-11T03:23:13.149Z,60.90
2019-05-11T03:25:43.188Z,60.91
2019-05-11T03:28:13.233Z,60.95
2019-05-11T03:30:43.306Z,60.88
2019-05-11T03:33:13.326Z,60.90
2019-05-11T03:35:43.381Z,61.09
2019-05-11T03:38:13.399Z,61.10
2019-05-11T03:40:43.426Z,61.01
2019-05-11T03:43:13.486Z,60.88
2019-05-11T03:45:43.507Z,60.71
2019-05-11T03:48:13.568Z,60.58
2019-05-11T03:50:43.719Z,60.57
2019-05-11T03:53:13.817Z,60.61
2019-05-11T03:55:43.846Z,60.55
2019-05-11T03:58:13.872Z,60.49
2019-05-11T04:00:43.887Z,60.34
2019-05-11T04:03:13.943Z,60.26
2019-05-11T04:05:43.985Z,60.21
2019-05-11T04:08:14.031Z,60.20
2019-05-11T04:10:45.032Z,60.18
2019-05-11T04:13:15.093Z,60.22
2019-05-11T04:15:45.145Z,60.29
2019-05-11T04:18:15.202Z,60.36
2019-05-11T04:20:45.204Z,60.51
2019-05-11T04:23:15.260Z,60.47
2019-05-11T04:25:45.279Z,60.51
2019-05-11T04:28:15.315Z,60.49
2019-05-11T04:30:45.360Z,60.42
2019-05-11T04:33:15.385Z,60.37
2019-05-11T04:35:45.437Z,60.35
2019-05-11T04:38:15.465Z,60.37
2019-05-11T04:40:45.518Z,60.43
2019-05-11T04:43:15.550Z,60.46
2019-05-11T04:45:45.588Z,60.51
2019-05-11T04:48:15.594Z,60.56
2019-05-11T04:50:45.646Z,60.47
2019-05-11T04:53:15.675Z,60.56
2019-05-11T04:55:45.713Z,60.78
2019-05-11T04:58:15.776Z,60.76
2019-05-11T05:00:45.795Z,60.66
2019-05-11T05:03:15.846Z,60.55
2019-05-11T05:05:45.857Z,60.53
2019-05-11T05:08:15.908Z,60.47
2019-05-11T05:10:45.919Z,60.54
2019-05-11T05:13:15.950Z,60.69
2019-05-11T05:15:46.013Z,60.85
2019-05-11T05:18:16.063Z,60.96
2019-05-11T05:20:47.766Z,60.99
2019-05-11T05:23:17.811Z,60.98
2019-05-11T05:25:47.904Z,61.06
2019-05-11T05:28:17.956Z,61.24
2019-05-11T05:30:47.993Z,61.37
2019-05-11T05:33:18.016Z,61.58
2019-05-11T05:35:48.073Z,61.64
2019-05-11T05:38:18.089Z,61.50
2019-05-11T05:40:48.123Z,61.42
2019-05-11T05:43:26.008Z,61.23
2019-05-11T05:45:49.902Z,61.08
2019-05-11T05:48:19.984Z,60.83
2019-05-11T05:50:50.011Z,60.51
2019-05-11T05:53:20.057Z,60.04
2019-05-11T05:55:50.079Z,59.75
2019-05-11T05:58:20.113Z,59.22
2019-05-11T06:00:50.168Z,58.86
2019-05-11T06:03:20.221Z,58.56
2019-05-11T06:05:50.269Z,58.67
2019-05-11T06:08:20.289Z,58.67
2019-05-11T06:10:50.389Z,58.86
2019-05-11T06:13:21.396Z,59.00
2019-05-11T06:15:52.419Z,58.91
2019-05-11T06:18:22.472Z,59.09
2019-05-11T06:20:52.483Z,59.06
2019-05-11T06:23:22.554Z,58.87
2019-05-11T06:25:52.594Z,58.66
2019-05-11T06:28:22.607Z,58.50
2019-05-11T06:30:52.760Z,58.24
2019-05-11T06:33:22.797Z,58.18
2019-05-11T06:35:52.845Z,58.07
2019-05-11T06:38:22.882Z,57.85
2019-05-11T06:40:52.932Z,57.93
2019-05-11T06:43:22.941Z,57.83
2019-05-11T06:45:52.989Z,57.73
2019-05-11T06:48:23.021Z,57.89
2019-05-11T06:50:53.053Z,58.04
2019-05-11T06:53:23.078Z,57.75
2019-05-11T06:55:53.152Z,57.41
2019-05-11T06:58:23.188Z,57.03
2019-05-11T07:00:53.246Z,56.26
2019-05-11T07:03:23.265Z,56.41
2019-05-11T07:05:55.828Z,56.34
2019-05-11T07:08:25.863Z,55.87
2019-05-11T07:10:55.895Z,55.73
2019-05-11T07:13:25.958Z,55.89
2019-05-11T07:15:56.027Z,55.85
2019-05-11T07:18:26.068Z,55.27
2019-05-11T07:20:56.105Z,54.52
2019-05-11T07:23:26.137Z,54.33
2019-05-11T07:26:00.020Z,53.89
2019-05-11T07:28:27.929Z,53.81
2019-05-11T07:30:57.961Z,53.54
2019-05-11T07:33:28.679Z,53.78
2019-05-11T07:35:58.814Z,52.27
2019-05-11T07:38:28.865Z,53.19
2019-05-11T07:40:58.897Z,51.24
2019-05-11T07:43:29.022Z,51.24
2019-05-11T07:45:59.054Z,51.92
2019-05-11T07:48:29.102Z,52.97
2019-05-11T07:50:59.138Z,53.41
2019-05-11T07:53:29.188Z,53.27
2019-05-11T07:55:59.247Z,51.22
2019-05-11T07:58:29.285Z,51.22
2019-05-11T08:01:00.309Z,51.73
2019-05-11T08:03:30.335Z,51.04
2019-05-11T08:06:02.790Z,51.72
2019-05-11T08:08:32.107Z,51.06
2019-05-11T08:11:02.161Z,50.17
2019-05-11T08:13:32.215Z,50.17
2019-05-11T08:16:02.397Z,50.68
2019-05-11T08:18:32.494Z,50.34
2019-05-11T08:21:02.532Z,50.34
2019-05-11T08:23:32.581Z,49.03
2019-05-11T08:26:02.785Z,49.28
2019-05-11T08:28:32.861Z,49.80
2019-05-11T08:31:02.878Z,50.38
2019-05-11T08:33:32.917Z,50.47
2019-05-11T08:36:02.948Z,48.90
2019-05-11T08:38:32.993Z,48.79
2019-05-11T08:41:03.011Z,48.87
2019-05-11T08:43:33.050Z,49.07
2019-05-11T08:46:03.178Z,48.56
2019-05-11T08:48:33.192Z,49.59
2019-05-11T08:51:03.254Z,49.17
2019-05-11T08:53:33.272Z,49.99
2019-05-11T08:56:03.326Z,50.51
2019-05-11T08:58:33.357Z,48.41
2019-05-11T09:01:03.418Z,48.03
2019-05-11T09:03:33.449Z,47.89
2019-05-11T09:06:03.506Z,47.45
2019-05-11T09:08:33.543Z,47.45
2019-05-11T09:11:03.591Z,47.69
2019-05-11T09:13:33.621Z,48.07
2019-05-11T09:16:03.704Z,46.43
2019-05-11T09:18:33.725Z,47.10
2019-05-11T09:21:03.775Z,47.18
2019-05-11T09:23:37.618Z,46.60
2019-05-11T09:26:05.535Z,47.06
2019-05-11T09:28:35.634Z,47.67
2019-05-11T09:31:08.343Z,46.80
2019-05-11T09:33:38.589Z,46.41
2019-05-11T09:36:09.873Z,46.67
2019-05-11T09:38:40.006Z,47.44
2019-05-11T09:41:12.220Z,46.87
2019-05-11T09:43:42.325Z,46.85
2019-05-11T09:46:12.358Z,46.03
2019-05-11T09:48:42.376Z,45.84
2019-05-11T09:51:12.407Z,45.74
2019-05-11T09:53:42.424Z,44.45
2019-05-11T09:56:12.456Z,44.64
2019-05-11T09:58:42.494Z,45.18
2019-05-11T10:01:12.576Z,45.54
2019-05-11T10:03:42.735Z,45.06
2019-05-11T10:06:12.752Z,43.12
2019-05-11T10:08:42.884Z,43.92
2019-05-11T10:11:12.906Z,43.76
2019-05-11T10:13:43.038Z,43.89
2019-05-11T10:16:13.838Z,44.53
2019-05-11T10:18:44.848Z,42.99
2019-05-11T10:21:14.887Z,42.41
2019-05-11T10:23:45.008Z,42.75
2019-05-11T10:26:15.044Z,42.92
2019-05-11T10:28:45.084Z,43.04
2019-05-11T10:31:15.116Z,44.72
2019-05-11T10:33:45.160Z,44.41
2019-05-11T10:36:15.183Z,44.13
2019-05-11T10:38:45.214Z,44.30
2019-05-11T10:41:15.227Z,43.94
2019-05-11T10:43:45.282Z,44.06
2019-05-11T10:46:22.236Z,44.46
2019-05-11T10:48:48.309Z,45.35
2019-05-11T10:51:18.665Z,44.36
2019-05-11T10:53:51.928Z,43.76
2019-05-11T10:56:20.428Z,43.43
2019-05-11T10:58:51.444Z,42.30
2019-05-11T11:01:21.494Z,39.70
2019-05-11T11:03:51.607Z,40.37
2019-05-11T11:06:21.625Z,42.17
2019-05-11T11:08:51.679Z,41.04
2019-05-11T11:11:21.705Z,40.70
2019-05-11T11:13:51.761Z,41.81
2019-05-11T11:16:35.568Z,41.57
2019-05-11T11:18:54.429Z,42.30
2019-05-11T11:21:24.496Z,40.63
2019-05-11T11:23:54.500Z,41.85
2019-05-11T11:26:24.533Z,41.87
2019-05-11T11:28:54.574Z,41.77
2019-05-11T11:31:28.711Z,41.35
2019-05-11T11:33:58.645Z,40.84
2019-05-11T11:36:28.740Z,40.06
2019-05-11T11:38:58.805Z,40.42
2019-05-11T11:41:30.023Z,38.88
2019-05-11T11:44:00.156Z,37.54
2019-05-11T11:46:30.259Z,38.58
2019-05-11T11:49:00.395Z,39.12
2019-05-11T11:51:30.410Z,39.62
2019-05-11T11:54:00.451Z,39.19
2019-05-11T11:56:30.522Z,39.98
2019-05-11T11:59:00.557Z,38.35
2019-05-11T12:01:30.615Z,38.13
2019-05-11T12:04:00.655Z,37.76
2019-05-11T12:06:30.684Z,39.50
2019-05-11T12:09:01.698Z,39.53
2019-05-11T12:11:32.883Z,40.42
2019-05-11T12:14:02.933Z,40.56
2019-05-11T12:16:32.966Z,40.10
2019-05-11T12:19:05.278Z,39.85
2019-05-11T12:21:34.755Z,39.09
2019-05-11T12:24:04.779Z,39.49
2019-05-11T12:26:34.817Z,40.52
2019-05-11T12:29:04.837Z,40.54
2019-05-11T12:31:34.873Z,39.74
2019-05-11T12:34:04.889Z,38.18
2019-05-11T12:36:34.930Z,39.01
2019-05-11T12:39:08.347Z,36.80
2019-05-11T12:41:38.875Z,36.38
2019-05-11T12:44:09.033Z,37.91
2019-05-11T12:46:39.626Z,38.80
2019-05-11T12:49:10.658Z,39.44
2019-05-11T12:51:40.723Z,39.44
2019-05-11T12:54:10.732Z,38.53
2019-05-11T12:56:40.813Z,38.60
2019-05-11T12:59:10.901Z,37.17
2019-05-11T13:01:40.876Z,36.99
2019-05-11T13:04:10.893Z,39.02
2019-05-11T13:06:40.954Z,38.17
2019-05-11T13:09:10.972Z,38.92
2019-05-11T13:11:41.023Z,38.36
2019-05-11T13:14:11.058Z,39.37
2019-05-11T13:16:41.116Z,38.98
2019-05-11T13:19:11.134Z,37.21
2019-05-11T13:21:41.188Z,37.19
2019-05-11T13:24:11.216Z,37.83
2019-05-11T13:26:41.262Z,37.29
2019-05-11T13:29:11.316Z,37.00
2019-05-11T13:31:41.344Z,37.11
2019-05-11T13:34:11.376Z,37.22
2019-05-11T13:36:41.438Z,35.60
2019-05-11T13:39:11.452Z,35.72
2019-05-11T13:41:41.500Z,36.39
2019-05-11T13:44:11.689Z,37.74
2019-05-11T13:46:43.379Z,36.67
2019-05-11T13:49:13.435Z,35.71
2019-05-11T13:51:44.439Z,36.36
2019-05-11T13:54:14.486Z,35.19
2019-05-11T13:56:44.524Z,35.91
2019-05-11T13:59:14.577Z,36.65
2019-05-11T14:01:44.607Z,38.43
2019-05-11T14:04:14.661Z,37.30
2019-05-11T14:06:44.679Z,37.57
2019-05-11T14:09:14.717Z,35.07
2019-05-11T14:11:45.077Z,36.42
2019-05-11T14:14:15.170Z,38.06
2019-05-11T14:16:45.217Z,36.31
2019-05-11T14:19:17.212Z,38.17
2019-05-11T14:21:48.987Z,39.61
2019-05-11T14:24:18.716Z,38.97
2019-05-11T14:26:49.006Z,38.14
2019-05-11T14:29:19.085Z,37.67
2019-05-11T14:31:49.147Z,37.14
2019-05-11T14:34:19.178Z,36.00
2019-05-11T14:36:49.238Z,35.90
2019-05-11T14:39:19.257Z,37.30
2019-05-11T14:41:49.284Z,37.93
2019-05-11T14:44:19.356Z,38.04
2019-05-11T14:46:49.421Z,38.76
2019-05-11T14:49:19.460Z,38.65
2019-05-11T14:51:49.481Z,38.06
2019-05-11T14:54:19.533Z,39.26
2019-05-11T14:56:49.558Z,38.93
2019-05-11T14:59:19.598Z,38.28
2019-05-11T15:01:50.605Z,37.28
2019-05-11T15:04:20.634Z,36.56
2019-05-11T15:06:50.702Z,35.99
2019-05-11T15:09:20.738Z,37.29
2019-05-11T15:11:52.637Z,36.78
2019-05-11T15:14:22.680Z,36.46
2019-05-11T15:16:52.720Z,35.90
2019-05-11T15:19:22.741Z,36.78
2019-05-11T15:21:52.789Z,36.98
2019-05-11T15:24:22.818Z,37.29
2019-05-11T15:26:52.850Z,38.02
2019-05-11T15:29:22.889Z,37.68
2019-05-11T15:31:52.909Z,37.55
2019-05-11T15:34:22.960Z,38.54
2019-05-11T15:36:58.151Z,38.18
2019-05-11T15:39:28.742Z,37.95
2019-05-11T15:42:09.177Z,38.54
2019-05-11T15:44:30.764Z,37.83
2019-05-11T15:47:00.817Z,38.15
2019-05-11T15:49:30.875Z,37.09
2019-05-11T15:52:00.885Z,37.69
2019-05-11T15:54:30.949Z,37.88
2019-05-11T15:57:00.977Z,37.31
2019-05-11T15:59:30.999Z,37.06
2019-05-11T16:02:01.051Z,37.13
2019-05-11T16:04:31.080Z,37.52
2019-05-11T16:07:01.116Z,39.56
2019-05-11T16:09:31.149Z,38.88
2019-05-11T16:12:01.185Z,38.84
2019-05-11T16:14:31.232Z,39.14
2019-05-11T16:17:01.262Z,38.92
2019-05-11T16:19:31.313Z,39.10
2019-05-11T16:22:02.296Z,39.71
2019-05-11T16:24:32.348Z,40.63
2019-05-11T16:27:02.373Z,40.55
2019-05-11T16:29:32.415Z,40.78
2019-05-11T16:32:02.505Z,40.99
2019-05-11T16:34:32.615Z,40.98
2019-05-11T16:37:05.356Z,41.20
2019-05-11T16:39:34.387Z,40.95
2019-05-11T16:42:04.461Z,40.40
2019-05-11T16:44:34.488Z,40.68
2019-05-11T16:47:04.558Z,39.81
2019-05-11T16:49:34.646Z,39.78
2019-05-11T16:52:04.680Z,39.88
2019-05-11T16:54:34.708Z,39.87
2019-05-11T16:57:08.430Z,40.01
2019-05-11T16:59:39.826Z,39.48
2019-05-11T17:02:09.335Z,39.86
2019-05-11T17:04:39.897Z,40.43
2019-05-11T17:07:09.992Z,40.50
2019-05-11T17:09:40.004Z,40.51
2019-05-11T17:12:10.046Z,40.82
2019-05-11T17:14:58.459Z,40.68
2019-05-11T17:17:29.613Z,40.63
2019-05-11T17:19:59.728Z,40.51
2019-05-11T17:22:29.756Z,40.44
2019-05-11T17:24:59.796Z,40.74
2019-05-11T17:27:29.801Z,40.48
2019-05-11T17:29:59.904Z,40.41
2019-05-11T17:32:29.922Z,40.03
2019-05-11T17:34:59.981Z,39.71
2019-05-11T17:37:31.096Z,39.19
2019-05-11T17:40:01.150Z,39.70
2019-05-11T17:42:31.233Z,39.10
2019-05-11T17:45:02.263Z,38.83
2019-05-11T17:47:32.369Z,38.54
2019-05-11T17:50:03.931Z,38.17
2019-05-11T17:52:34.157Z,38.42
2019-05-11T17:55:04.172Z,38.90
2019-05-11T17:57:34.259Z,37.25
2019-05-11T18:00:04.609Z,37.26
2019-05-11T18:02:35.732Z,37.30
2019-05-11T18:05:05.786Z,37.46
2019-05-11T18:07:38.318Z,37.67
2019-05-11T18:10:08.199Z,37.38
2019-05-11T18:12:39.100Z,38.05
2019-05-11T18:15:09.305Z,38.14
2019-05-11T18:17:39.362Z,38.39
2019-05-11T18:20:17.276Z,38.35
2019-05-11T18:22:41.143Z,38.61
2019-05-11T18:25:13.926Z,38.92
2019-05-11T18:27:42.903Z,39.34
2019-05-11T18:30:12.942Z,39.44
2019-05-11T18:32:42.996Z,39.47
2019-05-11T18:35:13.020Z,39.71
2019-05-11T18:37:43.055Z,39.75
2019-05-11T18:40:13.202Z,40.01
2019-05-11T18:42:43.217Z,40.24
2019-05-11T18:45:14.254Z,40.60
2019-05-11T18:47:44.271Z,40.89
2019-05-11T18:50:28.251Z,40.98
2019-05-11T18:52:46.101Z,41.21
2019-05-11T18:55:16.149Z,41.39
2019-05-11T18:57:48.719Z,41.49
2019-05-11T19:00:18.541Z,41.63
2019-05-11T19:02:49.436Z,41.37
2019-05-11T19:05:19.785Z,41.29
2019-05-11T19:07:49.789Z,41.68
2019-05-11T19:10:19.863Z,41.94
2019-05-11T19:12:49.901Z,41.10
2019-05-11T19:15:19.915Z,41.05
2019-05-11T19:17:49.959Z,41.09
2019-05-11T19:20:20.012Z,41.27
2019-05-11T19:22:50.038Z,41.49
2019-05-11T19:25:20.061Z,41.75
2019-05-11T19:27:50.716Z,42.05
2019-05-11T19:30:20.943Z,42.00
2019-05-11T19:32:51.075Z,42.26
2019-05-11T19:35:21.597Z,42.18
2019-05-11T19:37:51.724Z,42.47
2019-05-11T19:40:21.754Z,42.72
2019-05-11T19:42:55.063Z,42.81
2019-05-11T19:45:25.066Z,42.58
2019-05-11T19:47:55.103Z,43.00
2019-05-11T19:50:25.169Z,43.04
2019-05-11T19:52:55.197Z,43.29
2019-05-11T19:55:25.341Z,43.55
2019-05-11T19:57:55.432Z,43.13
2019-05-11T20:00:25.482Z,43.30
2019-05-11T20:02:55.590Z,43.46
2019-05-11T20:05:25.624Z,43.42
2019-05-11T20:07:55.674Z,43.72
2019-05-11T20:10:27.802Z,43.85
2019-05-11T20:12:58.791Z,43.83
2019-05-11T20:15:29.067Z,43.87
2019-05-11T20:17:59.122Z,44.05
2019-05-11T20:20:29.150Z,44.04
2019-05-11T20:22:59.183Z,43.62
2019-05-11T20:25:29.247Z,43.45
2019-05-11T20:27:59.258Z,43.84
2019-05-11T20:30:29.290Z,43.91
2019-05-11T20:32:59.316Z,44.11
2019-05-11T20:35:32.334Z,44.46
2019-05-11T20:38:01.085Z,44.60
2019-05-11T20:40:32.108Z,44.66
2019-05-11T20:43:02.162Z,44.69
2019-05-11T20:45:32.266Z,44.44
2019-05-11T20:48:02.313Z,44.56
2019-05-11T20:50:32.380Z,44.96
2019-05-11T20:53:02.436Z,45.22
2019-05-11T20:55:32.550Z,45.41
2019-05-11T20:58:02.601Z,45.45
2019-05-11T21:00:32.685Z,45.59
2019-05-11T21:03:02.733Z,45.53
2019-05-11T21:05:32.749Z,45.83
2019-05-11T21:08:02.820Z,45.83
2019-05-11T21:10:32.857Z,45.60
2019-05-11T21:13:02.885Z,45.87
2019-05-11T21:15:32.944Z,45.73
2019-05-11T21:18:02.968Z,45.87
2019-05-11T21:20:33.020Z,46.18
2019-05-11T21:23:03.069Z,46.41
2019-05-11T21:25:33.110Z,46.70
2019-05-11T21:28:03.150Z,46.71
2019-05-11T21:30:33.196Z,46.66
2019-05-11T21:33:03.228Z,46.57
2019-05-11T21:35:33.345Z,46.71
2019-05-11T21:38:03.440Z,47.06
2019-05-11T21:40:33.483Z,47.40
2019-05-11T21:43:03.534Z,47.53
2019-05-11T21:45:33.618Z,47.85
2019-05-11T21:48:03.638Z,48.20
2019-05-11T21:50:33.726Z,48.45
2019-05-11T21:53:03.774Z,48.37
2019-05-11T21:55:33.831Z,48.39
2019-05-11T21:58:03.869Z,48.54
2019-05-11T22:00:33.995Z,48.43
2019-05-11T22:03:09.918Z,48.73
2019-05-11T22:05:38.130Z,48.70
2019-05-11T22:08:08.683Z,48.78
2019-05-11T22:10:38.798Z,49.00
2019-05-11T22:13:08.784Z,49.21
2019-05-11T22:15:38.833Z,49.42
2019-05-11T22:18:09.824Z,49.54
2019-05-11T22:20:41.012Z,49.39
2019-05-11T22:23:12.049Z,49.28
2019-05-11T22:25:42.116Z,49.39
2019-05-11T22:28:12.236Z,49.56
2019-05-11T22:30:42.289Z,49.77
2019-05-11T22:33:12.322Z,50.00
2019-05-11T22:35:42.380Z,50.09
2019-05-11T22:38:12.411Z,50.08
2019-05-11T22:40:42.495Z,50.02
2019-05-11T22:43:12.492Z,50.07
2019-05-11T22:45:42.535Z,50.36
2019-05-11T22:48:12.606Z,50.45
2019-05-11T22:50:43.789Z,50.55
2019-05-11T22:53:13.917Z,50.71
2019-05-11T22:55:43.946Z,50.69
2019-05-11T22:58:13.974Z,50.80
2019-05-11T23:00:44.347Z,50.88
2019-05-11T23:03:14.384Z,51.03
2019-05-11T23:05:44.435Z,51.19
2019-05-11T23:08:14.461Z,51.32
2019-05-11T23:10:44.503Z,51.31
2019-05-11T23:13:14.543Z,51.43
2019-05-11T23:15:44.577Z,51.40
2019-05-11T23:18:14.631Z,51.48
2019-05-11T23:20:44.654Z,51.53
2019-05-11T23:23:14.713Z,51.58
2019-05-11T23:25:44.722Z,51.73
2019-05-11T23:28:14.777Z,51.40
2019-05-11T23:30:44.798Z,50.83
2019-05-11T23:33:14.860Z,50.57
2019-05-11T23:35:44.884Z,50.54
2019-05-11T23:38:14.954Z,50.31
2019-05-11T23:40:44.980Z,50.15
2019-05-11T23:43:15.015Z,50.16
2019-05-11T23:45:45.031Z,50.22
2019-05-11T23:48:15.069Z,50.47
2019-05-11T23:50:45.286Z,50.75
2019-05-11T23:53:17.664Z,50.91
2019-05-11T23:55:48.393Z,51.21
2019-05-11T23:58:19.385Z,51.37
